createdAt,value
2023-03-17T00:01:51.611Z,101362.79
2023-03-17T00:04:19.831Z,101361.42
2023-03-17T00:06:47.707Z,101365.64
2023-03-17T00:09:18.212Z,101369.20
2023-03-17T00:11:46.788Z,101374.63
2023-03-17T00:14:14.684Z,101376.33
2023-03-17T00:16:45.091Z,101373.30
2023-03-17T00:19:17.991Z,101367.23
2023-03-17T00:21:48.576Z,101361.36
2023-03-17T00:24:17.248Z,101366.46
2023-03-17T00:26:45.038Z,101367.88
2023-03-17T00:29:13.480Z,101357.91
2023-03-17T00:31:41.425Z,101350.65
2023-03-17T00:34:14.211Z,101347.66
2023-03-17T00:36:43.800Z,101346.70
2023-03-17T00:39:17.394Z,101341.82
2023-03-17T00:44:14.588Z,101339.08
2023-03-17T00:46:42.508Z,101341.95
2023-03-17T00:51:44.826Z,101332.65
2023-03-17T00:54:15.631Z,101323.90
2023-03-17T00:56:44.889Z,101324.30
2023-03-17T00:59:26.256Z,101320.90
2023-03-17T01:01:54.665Z,101314.41
2023-03-17T01:04:23.155Z,101316.95
2023-03-17T01:06:52.214Z,101313.67
2023-03-17T01:09:24.268Z,101312.64
2023-03-17T01:11:51.950Z,101312.20
2023-03-17T01:14:19.629Z,101308.97
2023-03-17T01:16:47.916Z,101308.81
2023-03-17T01:19:16.831Z,101306.13
2023-03-17T01:21:45.811Z,101308.14
2023-03-17T01:24:14.566Z,101312.06
2023-03-17T01:26:42.344Z,101307.55
2023-03-17T01:29:10.084Z,101308.05
2023-03-17T01:31:37.871Z,101305.98
2023-03-17T01:34:06.365Z,101315.27
2023-03-17T01:36:34.530Z,101312.04
2023-03-17T01:39:05.467Z,101308.50
2023-03-17T01:41:37.648Z,101310.55
2023-03-17T01:44:07.275Z,101310.25
2023-03-17T01:46:36.152Z,101311.91
2023-03-17T01:49:10.143Z,101314.98
2023-03-17T01:52:02.960Z,101317.60
2023-03-17T01:54:35.005Z,101319.23
2023-03-17T01:57:21.456Z,101316.25
2023-03-17T02:00:08.188Z,101316.70
2023-03-17T02:02:40.191Z,101324.56
2023-03-17T02:05:11.600Z,101318.89
2023-03-17T02:07:40.540Z,101316.87
2023-03-17T02:10:09.159Z,101322.88
2023-03-17T02:12:37.100Z,101323.09
2023-03-17T02:15:05.934Z,101316.39
2023-03-17T02:17:34.163Z,101316.06
2023-03-17T02:20:17.315Z,101316.63
2023-03-17T02:22:48.656Z,101317.17
2023-03-17T02:25:17.577Z,101317.53
2023-03-17T02:27:48.355Z,101313.88
2023-03-17T02:30:20.627Z,101316.11
2023-03-17T02:32:48.349Z,101315.79
2023-03-17T02:35:16.566Z,101314.57
2023-03-17T02:37:44.417Z,101315.59
2023-03-17T02:40:14.012Z,101316.63
2023-03-17T02:42:42.074Z,101319.77
2023-03-17T02:45:12.508Z,101323.89
2023-03-17T02:47:41.417Z,101325.84
2023-03-17T02:50:17.800Z,101325.89
2023-03-17T02:52:45.556Z,101332.39
2023-03-17T02:55:14.241Z,101333.13
2023-03-17T02:57:41.958Z,101335.37
2023-03-17T03:00:10.836Z,101337.41
2023-03-17T03:02:39.087Z,101342.27
2023-03-17T03:05:08.840Z,101346.31
2023-03-17T03:07:36.774Z,101344.88
2023-03-17T03:10:05.904Z,101345.77
2023-03-17T03:12:33.618Z,101347.94
2023-03-17T03:15:01.250Z,101349.80
2023-03-17T03:17:29.004Z,101352.48
2023-03-17T03:19:56.730Z,101356.20
2023-03-17T03:22:24.461Z,101361.93
2023-03-17T03:24:52.241Z,101355.62
2023-03-17T03:27:19.905Z,101353.90
2023-03-17T03:29:47.648Z,101355.57
2023-03-17T03:32:15.301Z,101361.64
2023-03-17T03:34:43.203Z,101366.60
2023-03-17T03:37:11.131Z,101358.48
2023-03-17T03:39:39.150Z,101355.08
2023-03-17T03:42:07.194Z,101354.36
2023-03-17T03:44:35.436Z,101355.35
2023-03-17T03:47:03.107Z,101358.11
2023-03-17T03:49:30.903Z,101359.40
2023-03-17T03:51:58.570Z,101362.02
2023-03-17T03:54:26.225Z,101362.50
2023-03-17T03:56:53.987Z,101360.65
2023-03-17T03:59:21.657Z,101355.60
2023-03-17T04:01:49.301Z,101348.68
2023-03-17T04:04:17.011Z,101345.28
2023-03-17T04:06:44.765Z,101342.71
2023-03-17T04:09:13.505Z,101339.26
2023-03-17T04:11:41.760Z,101333.40
2023-03-17T04:14:09.427Z,101338.03
2023-03-17T04:16:37.258Z,101342.33
2023-03-17T04:19:04.963Z,101345.73
2023-03-17T04:21:32.706Z,101351.02
2023-03-17T04:24:00.441Z,101350.80
2023-03-17T04:26:28.138Z,101354.54
2023-03-17T04:28:55.820Z,101358.06
2023-03-17T04:31:23.496Z,101354.77
2023-03-17T04:33:51.233Z,101352.69
2023-03-17T04:36:21.725Z,101350.94
2023-03-17T04:38:49.838Z,101356.23
2023-03-17T04:41:17.623Z,101358.88
2023-03-17T04:43:45.673Z,101355.18
2023-03-17T04:46:14.169Z,101348.20
2023-03-17T04:48:41.887Z,101345.66
2023-03-17T04:51:11.700Z,101344.29
2023-03-17T04:53:40.077Z,101347.03
2023-03-17T04:56:07.872Z,101350.69
2023-03-17T04:58:35.930Z,101354.42
2023-03-17T05:01:03.961Z,101349.38
2023-03-17T05:03:31.851Z,101352.78
2023-03-17T05:06:00.951Z,101357.55
2023-03-17T05:08:29.341Z,101358.12
2023-03-17T05:10:58.432Z,101364.79
2023-03-17T05:13:27.339Z,101372.71
2023-03-17T05:15:56.413Z,101380.73
2023-03-17T05:18:25.554Z,101382.30
2023-03-17T05:20:53.647Z,101382.77
2023-03-17T05:23:22.401Z,101384.82
2023-03-17T05:25:50.574Z,101388.09
2023-03-17T05:28:20.807Z,101388.44
2023-03-17T05:30:49.436Z,101386.76
2023-03-17T05:33:17.554Z,101388.35
2023-03-17T05:35:46.503Z,101388.57
2023-03-17T05:38:16.100Z,101391.73
2023-03-17T05:40:44.585Z,101397.94
2023-03-17T05:43:12.513Z,101394.38
2023-03-17T05:45:41.363Z,101397.39
2023-03-17T05:48:09.238Z,101397.45
2023-03-17T05:50:37.303Z,101401.48
2023-03-17T05:53:05.083Z,101402.91
2023-03-17T05:55:32.777Z,101400.15
2023-03-17T05:58:00.967Z,101397.20
2023-03-17T06:00:29.446Z,101395.27
2023-03-17T06:02:57.345Z,101395.66
2023-03-17T06:05:25.040Z,101394.70
2023-03-17T06:07:56.226Z,101393.52
2023-03-17T06:10:24.736Z,101396.64
2023-03-17T06:12:52.893Z,101392.49
2023-03-17T06:15:21.066Z,101385.20
2023-03-17T06:17:48.735Z,101387.14
2023-03-17T06:20:16.811Z,101386.98
2023-03-17T06:23:02.251Z,101385.41
2023-03-17T06:25:31.883Z,101390.39
2023-03-17T06:28:02.564Z,101389.96
2023-03-17T06:30:33.008Z,101383.16
2023-03-17T06:33:02.202Z,101384.15
2023-03-17T06:35:31.362Z,101387.98
2023-03-17T06:38:00.966Z,101389.79
2023-03-17T06:40:29.127Z,101393.13
2023-03-17T06:42:57.141Z,101390.21
2023-03-17T06:45:25.040Z,101390.92
2023-03-17T06:47:53.061Z,101393.96
2023-03-17T06:50:21.398Z,101391.95
2023-03-17T06:52:49.554Z,101393.56
2023-03-17T06:55:17.931Z,101394.52
2023-03-17T06:57:45.860Z,101393.52
2023-03-17T07:00:14.302Z,101394.08
2023-03-17T07:02:43.293Z,101393.41
2023-03-17T07:05:12.686Z,101389.63
2023-03-17T07:07:41.187Z,101385.67
2023-03-17T07:10:10.429Z,101380.56
2023-03-17T07:12:38.098Z,101381.27
2023-03-17T07:15:06.570Z,101383.67
2023-03-17T07:17:34.527Z,101383.36
2023-03-17T07:20:02.231Z,101377.41
2023-03-17T07:22:29.924Z,101373.20
2023-03-17T07:24:58.070Z,101375.12
2023-03-17T07:27:26.539Z,101379.85
2023-03-17T07:29:54.262Z,101376.95
2023-03-17T07:32:21.996Z,101366.38
2023-03-17T07:34:50.063Z,101358.96
2023-03-17T07:37:17.962Z,101365.58
2023-03-17T07:39:47.366Z,101371.42
2023-03-17T07:42:17.497Z,101376.42
2023-03-17T07:44:45.546Z,101368.64
2023-03-17T07:47:14.539Z,101366.33
2023-03-17T07:49:43.152Z,101363.14
2023-03-17T07:52:12.648Z,101363.33
2023-03-17T07:54:43.009Z,101359.50
2023-03-17T07:57:12.104Z,101350.75
2023-03-17T07:59:40.308Z,101353.92
2023-03-17T08:02:11.303Z,101356.08
2023-03-17T08:04:39.023Z,101356.59
2023-03-17T08:07:07.053Z,101353.35
2023-03-17T08:09:34.887Z,101360.56
2023-03-17T08:12:04.032Z,101352.95
2023-03-17T08:14:32.075Z,101356.33
2023-03-17T08:16:59.961Z,101358.58
2023-03-17T08:19:27.905Z,101354.95
2023-03-17T08:21:55.786Z,101354.18
2023-03-17T08:24:23.641Z,101355.09
2023-03-17T08:26:51.404Z,101351.20
2023-03-17T08:29:20.408Z,101348.41
2023-03-17T08:31:48.284Z,101355.80
2023-03-17T08:34:16.682Z,101355.92
2023-03-17T08:36:44.637Z,101360.41
2023-03-17T08:39:12.443Z,101370.23
2023-03-17T08:41:40.127Z,101376.38
2023-03-17T08:44:08.951Z,101373.23
2023-03-17T08:46:37.505Z,101357.97
2023-03-17T08:49:05.207Z,101357.27
2023-03-17T08:51:35.908Z,101370.23
2023-03-17T08:54:05.828Z,101374.86
2023-03-17T08:56:34.441Z,101375.92
2023-03-17T08:59:02.177Z,101376.70
2023-03-17T09:01:30.183Z,101375.77
2023-03-17T09:03:58.246Z,101378.40
2023-03-17T09:06:26.474Z,101374.60
2023-03-17T09:08:57.050Z,101382.57
2023-03-17T09:11:28.160Z,101389.56
2023-03-17T09:13:56.585Z,101389.73
2023-03-17T09:16:25.534Z,101384.35
2023-03-17T09:18:53.337Z,101384.99
2023-03-17T09:21:21.403Z,101387.55
2023-03-17T09:23:49.146Z,101383.92
2023-03-17T09:26:16.940Z,101380.05
2023-03-17T09:28:44.806Z,101376.61
2023-03-17T09:31:13.070Z,101368.35
2023-03-17T09:33:41.735Z,101360.41
2023-03-17T09:36:10.656Z,101356.73
2023-03-17T09:38:39.200Z,101346.49
2023-03-17T09:41:23.929Z,101340.27
2023-03-17T09:44:05.097Z,101337.39
2023-03-17T09:46:53.790Z,101332.30
2023-03-17T09:49:27.593Z,101330.33
2023-03-17T09:51:56.270Z,101326.83
2023-03-17T09:54:34.150Z,101325.95
2023-03-17T09:57:33.023Z,101326.92
2023-03-17T10:00:06.668Z,101327.60
2023-03-17T10:02:37.559Z,101319.26
2023-03-17T10:05:18.114Z,101320.82
2023-03-17T10:08:22.739Z,101313.98
2023-03-17T10:11:09.486Z,101315.73
2023-03-17T10:14:00.665Z,101319.10
2023-03-17T10:16:51.743Z,101315.16
2023-03-17T10:19:40.557Z,101310.02
2023-03-17T10:22:35.178Z,101313.65
2023-03-17T10:25:07.648Z,101302.11
2023-03-17T10:27:38.298Z,101297.87
2023-03-17T10:30:16.172Z,101296.52
2023-03-17T10:32:45.843Z,101289.55
2023-03-17T10:35:15.524Z,101287.58
2023-03-17T10:37:46.430Z,101288.20
2023-03-17T10:40:26.732Z,101290.09
2023-03-17T10:43:03.851Z,101290.75
2023-03-17T10:45:34.020Z,101291.48
2023-03-17T10:48:04.456Z,101298.98
2023-03-17T10:50:36.009Z,101297.20
2023-03-17T10:53:03.639Z,101305.33
2023-03-17T10:55:44.744Z,101305.05
2023-03-17T10:58:20.314Z,101302.72
2023-03-17T11:01:22.945Z,101305.33
2023-03-17T11:03:51.032Z,101302.77
2023-03-17T11:06:30.896Z,101300.17
2023-03-17T11:09:07.686Z,101302.17
2023-03-17T11:11:44.912Z,101292.86
2023-03-17T11:14:15.510Z,101289.47
2023-03-17T11:17:00.098Z,101280.35
2023-03-17T11:19:57.343Z,101274.44
2023-03-17T11:22:40.643Z,101270.30
2023-03-17T11:25:17.615Z,101266.75
2023-03-17T11:28:08.028Z,101268.62
2023-03-17T11:30:41.631Z,101258.31
2023-03-17T11:33:39.365Z,101251.73
2023-03-17T11:36:17.349Z,101245.20
2023-03-17T11:39:00.806Z,101248.71
2023-03-17T11:41:51.847Z,101255.45
2023-03-17T11:44:41.168Z,101250.62
2023-03-17T11:47:11.448Z,101241.40
2023-03-17T11:49:40.708Z,101229.73
2023-03-17T11:52:30.003Z,101233.16
2023-03-17T11:55:02.462Z,101231.44
2023-03-17T11:57:39.236Z,101229.32
2023-03-17T12:00:34.009Z,101228.65
2023-03-17T12:03:25.979Z,101218.77
2023-03-17T12:05:58.551Z,101217.13
2023-03-17T12:09:00.408Z,101217.17
2023-03-17T12:11:32.051Z,101218.49
2023-03-17T12:14:07.809Z,101220.73
2023-03-17T12:16:41.432Z,101221.27
2023-03-17T12:19:28.525Z,101218.71
2023-03-17T12:22:01.275Z,101211.90
2023-03-17T12:24:51.370Z,101209.98
2023-03-17T12:27:33.613Z,101213.30
2023-03-17T12:30:07.913Z,101209.67
2023-03-17T12:32:49.581Z,101209.08
2023-03-17T12:35:34.994Z,101203.61
2023-03-17T12:38:12.430Z,101200.94
2023-03-17T12:41:08.090Z,101200.80
2023-03-17T12:44:08.016Z,101198.42
2023-03-17T12:47:14.292Z,101196.80
2023-03-17T12:50:15.700Z,101194.23
2023-03-17T12:53:01.200Z,101191.45
2023-03-17T12:55:32.618Z,101187.64
2023-03-17T12:58:08.122Z,101181.56
2023-03-17T13:00:50.761Z,101176.71
2023-03-17T13:03:33.804Z,101182.92
2023-03-17T13:06:21.277Z,101179.31
2023-03-17T13:08:50.386Z,101180.46
2023-03-17T13:11:36.411Z,101181.87
2023-03-17T13:14:27.172Z,101181.52
2023-03-17T13:17:16.717Z,101174.33
2023-03-17T13:20:12.933Z,101172.70
2023-03-17T13:23:00.553Z,101169.86
2023-03-17T13:25:45.617Z,101166.33
2023-03-17T13:28:13.289Z,101155.15
2023-03-17T13:30:52.501Z,101144.03
2023-03-17T13:33:24.096Z,101141.65
2023-03-17T13:36:33.648Z,101144.38
2023-03-17T13:39:27.103Z,101143.55
2023-03-17T13:42:17.701Z,101136.30
2023-03-17T13:45:23.378Z,101134.70
2023-03-17T13:47:52.464Z,101134.20
2023-03-17T13:50:30.835Z,101130.51
2023-03-17T13:53:04.763Z,101126.70
2023-03-17T13:55:42.816Z,101131.36
2023-03-17T13:58:11.864Z,101134.04
2023-03-17T14:00:43.865Z,101141.79
2023-03-17T14:03:25.446Z,101133.55
2023-03-17T14:05:54.228Z,101129.28
2023-03-17T14:09:00.698Z,101131.05
2023-03-17T14:11:45.264Z,101121.74
2023-03-17T14:14:36.527Z,101117.33
2023-03-17T14:17:12.200Z,101110.82
2023-03-17T14:19:41.726Z,101105.54
2023-03-17T14:22:22.458Z,101097.44
2023-03-17T14:24:55.556Z,101090.23
2023-03-17T14:27:24.710Z,101090.67
2023-03-17T14:29:59.000Z,101092.85
2023-03-17T14:32:27.161Z,101086.73
2023-03-17T14:34:57.755Z,101084.16
2023-03-17T14:37:28.533Z,101080.20
2023-03-17T14:39:59.143Z,101078.89
2023-03-17T14:42:31.666Z,101085.79
2023-03-17T14:45:02.224Z,101092.84
2023-03-17T14:47:37.349Z,101099.92
2023-03-17T14:50:14.549Z,101100.67
2023-03-17T14:52:42.787Z,101097.62
2023-03-17T14:55:16.006Z,101088.72
2023-03-17T14:57:49.373Z,101085.29
2023-03-17T15:00:36.555Z,101087.80
2023-03-17T15:03:17.629Z,101084.12
2023-03-17T15:05:46.769Z,101079.29
2023-03-17T15:08:41.152Z,101068.95
2023-03-17T15:11:34.903Z,101059.86
2023-03-17T15:14:16.140Z,101056.23
2023-03-17T15:16:49.734Z,101057.81
2023-03-17T15:19:47.954Z,101053.60
2023-03-17T15:22:29.909Z,101052.71
2023-03-17T15:25:23.230Z,101049.42
2023-03-17T15:27:52.153Z,101053.95
2023-03-17T15:30:21.041Z,101058.30
2023-03-17T15:33:02.692Z,101053.60
2023-03-17T15:35:30.591Z,101054.52
2023-03-17T15:37:58.298Z,101052.03
2023-03-17T15:40:25.961Z,101053.42
2023-03-17T15:42:53.598Z,101052.27
2023-03-17T15:45:21.255Z,101052.64
2023-03-17T15:47:49.033Z,101055.95
2023-03-17T15:50:28.520Z,101058.75
2023-03-17T15:52:57.124Z,101057.91
2023-03-17T15:55:29.853Z,101056.23
2023-03-17T15:57:58.711Z,101060.02
2023-03-17T16:00:29.956Z,101064.30
2023-03-17T16:03:04.384Z,101068.04
2023-03-17T16:05:35.015Z,101067.05
2023-03-17T16:08:04.756Z,101067.09
2023-03-17T16:10:33.658Z,101068.63
2023-03-17T16:13:01.491Z,101069.43
2023-03-17T16:15:32.991Z,101067.20
2023-03-17T16:18:04.344Z,101066.95
2023-03-17T16:20:36.333Z,101066.39
2023-03-17T16:23:08.859Z,101059.31
2023-03-17T16:25:36.967Z,101057.30
2023-03-17T16:28:20.768Z,101055.58
2023-03-17T16:30:49.133Z,101058.54
2023-03-17T16:33:39.633Z,101058.02
2023-03-17T16:36:07.734Z,101060.31
2023-03-17T16:38:35.484Z,101058.91
2023-03-17T16:41:09.188Z,101058.50
2023-03-17T16:43:38.099Z,101065.41
2023-03-17T16:46:11.447Z,101071.88
2023-03-17T16:48:39.491Z,101066.40
2023-03-17T16:51:07.355Z,101066.39
2023-03-17T16:53:35.408Z,101066.52
2023-03-17T16:56:03.596Z,101067.71
2023-03-17T16:58:37.021Z,101071.95
2023-03-17T17:01:15.531Z,101070.70
2023-03-17T17:03:43.892Z,101066.23
2023-03-17T17:06:14.504Z,101063.48
2023-03-17T17:08:46.966Z,101061.37
2023-03-17T17:11:16.787Z,101058.59
2023-03-17T17:13:52.607Z,101053.66
2023-03-17T17:16:28.720Z,101044.13
2023-03-17T17:18:57.229Z,101049.64
2023-03-17T17:21:26.338Z,101053.18
2023-03-17T17:24:07.397Z,101053.48
2023-03-17T17:26:37.031Z,101058.79
2023-03-17T17:29:04.808Z,101058.17
2023-03-17T17:31:32.593Z,101063.44
2023-03-17T17:34:00.483Z,101068.83
2023-03-17T17:36:28.447Z,101064.39
2023-03-17T17:38:56.124Z,101064.02
2023-03-17T17:41:24.321Z,101069.69
2023-03-17T17:43:53.750Z,101071.02
2023-03-17T17:46:23.027Z,101072.57
2023-03-17T17:48:50.917Z,101072.23
2023-03-17T17:51:20.952Z,101069.08
2023-03-17T17:53:52.180Z,101071.82
2023-03-17T17:56:20.199Z,101074.95
2023-03-17T17:58:49.516Z,101075.65
2023-03-17T18:01:21.873Z,101077.67
2023-03-17T18:03:49.620Z,101079.89
2023-03-17T18:06:18.066Z,101077.55
2023-03-17T18:08:46.129Z,101077.27
2023-03-17T18:11:13.790Z,101081.38
2023-03-17T18:13:41.563Z,101078.90
2023-03-17T18:16:18.401Z,101076.54
2023-03-17T18:18:47.297Z,101075.95
2023-03-17T18:21:15.158Z,101077.66
2023-03-17T18:23:47.098Z,101078.23
2023-03-17T18:26:16.233Z,101076.23
2023-03-17T18:28:44.506Z,101072.92
2023-03-17T18:31:19.107Z,101077.34
2023-03-17T18:33:49.307Z,101081.73
2023-03-17T18:36:18.667Z,101073.17
2023-03-17T18:38:46.386Z,101077.60
2023-03-17T18:41:14.455Z,101079.65
2023-03-17T18:43:44.799Z,101075.08
2023-03-17T18:46:16.347Z,101073.45
2023-03-17T18:48:44.165Z,101074.45
2023-03-17T18:51:11.846Z,101070.88
2023-03-17T18:53:39.557Z,101071.52
2023-03-17T18:56:07.612Z,101071.69
2023-03-17T18:58:36.396Z,101074.52
2023-03-17T19:01:04.396Z,101079.66
2023-03-17T19:03:32.455Z,101081.65
2023-03-17T19:06:13.041Z,101079.23
2023-03-17T19:08:41.531Z,101079.66
2023-03-17T19:11:11.468Z,101068.43
2023-03-17T19:13:39.917Z,101068.15
2023-03-17T19:16:09.303Z,101071.60
2023-03-17T19:18:41.406Z,101069.48
2023-03-17T19:21:10.759Z,101070.61
2023-03-17T19:23:39.647Z,101066.98
2023-03-17T19:26:08.702Z,101060.55
2023-03-17T19:28:36.328Z,101059.69
2023-03-17T19:31:04.106Z,101056.67
2023-03-17T19:33:32.801Z,101056.86
2023-03-17T19:36:02.721Z,101051.79
2023-03-17T19:38:31.014Z,101051.26
2023-03-17T19:40:58.783Z,101054.78
2023-03-17T19:43:40.023Z,101053.73
2023-03-17T19:46:11.398Z,101052.52
2023-03-17T19:48:39.893Z,101046.59
2023-03-17T19:51:08.202Z,101045.06
2023-03-17T19:53:37.375Z,101042.52
2023-03-17T19:56:05.589Z,101039.64
2023-03-17T19:58:33.272Z,101042.58
2023-03-17T20:01:01.346Z,101043.02
2023-03-17T20:03:29.364Z,101046.35
2023-03-17T20:06:02.292Z,101049.19
2023-03-17T20:08:29.942Z,101049.52
2023-03-17T20:10:57.995Z,101049.65
2023-03-17T20:13:25.720Z,101042.75
2023-03-17T20:15:54.440Z,101037.85
2023-03-17T20:18:25.247Z,101037.83
2023-03-17T20:20:54.944Z,101036.48
2023-03-17T20:23:23.750Z,101035.79
2023-03-17T20:25:53.872Z,101035.79
2023-03-17T20:28:21.650Z,101037.12
2023-03-17T20:30:51.967Z,101039.82
2023-03-17T20:33:19.845Z,101040.80
2023-03-17T20:35:47.651Z,101036.76
2023-03-17T20:38:16.061Z,101035.76
2023-03-17T20:40:47.242Z,101035.05
2023-03-17T20:43:15.273Z,101036.02
2023-03-17T20:45:43.275Z,101036.04
2023-03-17T20:48:11.296Z,101034.53
2023-03-17T20:50:39.324Z,101032.30
2023-03-17T20:53:07.533Z,101030.61
2023-03-17T20:55:36.501Z,101031.05
2023-03-17T20:58:04.252Z,101025.27
2023-03-17T21:00:32.993Z,101018.45
2023-03-17T21:03:00.998Z,101020.36
2023-03-17T21:05:30.915Z,101016.75
2023-03-17T21:07:58.612Z,101018.55
2023-03-17T21:10:26.366Z,101018.02
2023-03-17T21:12:54.010Z,101017.77
2023-03-17T21:15:23.768Z,101018.31
2023-03-17T21:17:51.525Z,101015.52
2023-03-17T21:20:21.205Z,101013.47
2023-03-17T21:22:48.912Z,101013.20
2023-03-17T21:25:16.603Z,101018.29
2023-03-17T21:27:44.280Z,101018.46
2023-03-17T21:30:17.988Z,101019.77
2023-03-17T21:32:45.648Z,101029.06
2023-03-17T21:35:14.716Z,101030.30
2023-03-17T21:37:42.406Z,101032.98
2023-03-17T21:40:13.049Z,101032.55
2023-03-17T21:42:40.798Z,101038.99
2023-03-17T21:45:09.808Z,101040.67
2023-03-17T21:47:37.880Z,101040.40
2023-03-17T21:50:06.034Z,101038.88
2023-03-17T21:52:33.702Z,101034.58
2023-03-17T21:55:01.386Z,101035.97
2023-03-17T21:57:29.731Z,101036.45
2023-03-17T21:59:57.542Z,101032.67
2023-03-17T22:02:25.673Z,101034.45
2023-03-17T22:04:53.525Z,101032.00
2023-03-17T22:07:23.965Z,101026.17
2023-03-17T22:09:57.169Z,101022.56
2023-03-17T22:12:24.964Z,101017.23
2023-03-17T22:14:53.717Z,101015.14
2023-03-17T22:17:21.467Z,101012.08
2023-03-17T22:19:49.216Z,101011.53
2023-03-17T22:22:16.872Z,101005.91
2023-03-17T22:24:44.632Z,101001.75
2023-03-17T22:27:12.735Z,101005.83
2023-03-17T22:29:40.489Z,101008.00
2023-03-17T22:32:09.051Z,101010.67
2023-03-17T22:34:37.418Z,101008.27
2023-03-17T22:37:05.306Z,101012.80
2023-03-17T22:39:37.117Z,101010.80
2023-03-17T22:42:05.688Z,101009.44
2023-03-17T22:44:35.683Z,101010.77
2023-03-17T22:47:03.602Z,101010.76
2023-03-17T22:49:31.328Z,101008.39
2023-03-17T22:51:58.998Z,101004.80
2023-03-17T22:54:27.003Z,101002.05
2023-03-17T22:56:54.655Z,101003.87
2023-03-17T22:59:22.466Z,100997.90
2023-03-17T23:01:50.451Z,100996.74
2023-03-17T23:04:18.577Z,101000.44
2023-03-17T23:06:46.589Z,100993.99
2023-03-17T23:09:14.859Z,100994.60
2023-03-17T23:11:42.796Z,100990.46
2023-03-17T23:14:11.421Z,100991.61
2023-03-17T23:16:39.120Z,100988.38
2023-03-17T23:19:06.833Z,100982.31
2023-03-17T23:21:38.548Z,100981.45
2023-03-17T23:24:08.654Z,100981.79
2023-03-17T23:26:37.088Z,100978.77
2023-03-17T23:29:07.370Z,100977.39
2023-03-17T23:31:37.089Z,100977.82
2023-03-17T23:34:06.752Z,100979.10
2023-03-17T23:36:38.292Z,100974.50
2023-03-17T23:39:08.169Z,100976.56
2023-03-17T23:41:36.341Z,100973.80
2023-03-17T23:44:05.590Z,100972.86
2023-03-17T23:46:33.508Z,100973.77
2023-03-17T23:49:01.630Z,100974.35
2023-03-17T23:51:29.370Z,100970.27
2023-03-17T23:53:58.282Z,100970.09
2023-03-17T23:56:26.001Z,100969.51
2023-03-17T23:58:53.827Z,100971.08
